createdAt,value
2018-02-06T00:01:38.904Z,33.67
2018-02-06T00:04:06.539Z,30.10
2018-02-06T00:06:34.083Z,30.83
2018-02-06T00:09:01.569Z,34.03
2018-02-06T00:11:29.073Z,33.95
2018-02-06T00:13:56.563Z,32.60
2018-02-06T00:16:24.090Z,30.70
2018-02-06T00:18:51.628Z,36.90
2018-02-06T00:21:19.151Z,33.60
2018-02-06T00:23:46.640Z,34.33
2018-02-06T00:26:14.149Z,32.92
2018-02-06T00:28:41.646Z,32.78
2018-02-06T00:31:09.331Z,36.63
2018-02-06T00:33:36.828Z,36.30
2018-02-06T00:36:04.397Z,34.60
2018-02-06T00:38:32.017Z,32.53
2018-02-06T00:40:59.671Z,35.55
2018-02-06T00:43:27.337Z,38.53
2018-02-06T00:45:54.922Z,40.97
2018-02-06T00:48:22.438Z,37.85
2018-02-06T00:50:50.572Z,38.33
2018-02-06T00:53:18.163Z,31.65
2018-02-06T00:55:45.672Z,40.28
2018-02-06T00:58:13.151Z,36.15
2018-02-06T01:00:40.675Z,34.85
2018-02-06T01:03:08.166Z,38.47
2018-02-06T01:05:35.678Z,38.60
2018-02-06T01:08:03.188Z,36.83
2018-02-06T01:10:30.693Z,42.03
2018-02-06T01:12:58.234Z,34.22
2018-02-06T01:15:25.731Z,38.90
2018-02-06T01:17:53.427Z,34.95
2018-02-06T01:20:20.942Z,34.03
2018-02-06T01:22:48.511Z,33.92
2018-02-06T01:25:16.020Z,31.48
2018-02-06T01:27:43.500Z,32.80
2018-02-06T01:30:11.006Z,32.92
2018-02-06T01:32:38.495Z,33.20
2018-02-06T01:35:06.007Z,35.15
2018-02-06T01:37:33.490Z,31.23
2018-02-06T01:40:00.983Z,33.80
2018-02-06T01:42:28.464Z,32.40
2018-02-06T01:44:56.145Z,35.28
2018-02-06T01:47:23.666Z,35.30
2018-02-06T01:50:02.979Z,31.48
2018-02-06T01:52:30.549Z,31.05
2018-02-06T01:54:58.037Z,35.08
2018-02-06T01:57:25.551Z,39.10
2018-02-06T01:59:53.042Z,34.75
2018-02-06T02:02:20.545Z,33.15
2018-02-06T02:04:48.037Z,37.17
2018-02-06T02:07:15.555Z,33.30
2018-02-06T02:09:43.075Z,38.10
2018-02-06T02:12:10.585Z,39.03
2018-02-06T02:14:38.091Z,37.15
2018-02-06T02:17:05.572Z,38.15
2018-02-06T02:19:34.669Z,32.05
2018-02-06T02:22:02.117Z,35.50
2018-02-06T02:24:29.655Z,32.95
2018-02-06T02:26:57.180Z,32.50
2018-02-06T02:29:24.681Z,38.85
2018-02-06T02:31:52.180Z,39.15
2018-02-06T02:34:19.659Z,43.20
2018-02-06T02:36:47.313Z,36.22
2018-02-06T02:39:14.853Z,37.80
2018-02-06T02:41:42.435Z,36.00
2018-02-06T04:39:45.924Z,40.05
2018-02-06T04:42:13.413Z,35.83
2018-02-06T04:44:41.003Z,37.67
2018-02-06T04:47:09.069Z,32.30
2018-02-06T04:49:36.678Z,37.90
2018-02-06T04:52:04.778Z,41.13
2018-02-06T04:54:32.302Z,36.97
2018-02-06T04:57:00.275Z,40.85
2018-02-06T04:59:28.458Z,38.13
2018-02-06T05:01:55.934Z,39.40
2018-02-06T05:04:23.555Z,33.45
2018-02-06T05:06:51.142Z,35.83
2018-02-06T05:09:18.757Z,37.25
2018-02-06T05:11:46.301Z,43.05
2018-02-06T05:14:13.863Z,37.67
2018-02-06T05:16:41.401Z,41.42
2018-02-06T05:19:08.990Z,37.45
2018-02-06T05:21:36.557Z,43.25
2018-02-06T05:24:04.032Z,43.30
2018-02-06T05:26:31.550Z,39.30
2018-02-06T05:28:59.050Z,39.72
2018-02-06T05:31:26.621Z,41.53
2018-02-06T05:33:54.134Z,39.92
2018-02-06T05:36:21.610Z,38.85
2018-02-06T05:38:49.124Z,38.95
2018-02-06T05:41:16.628Z,40.97
2018-02-06T05:43:44.142Z,40.03
2018-02-06T05:46:11.684Z,39.33
2018-02-06T05:48:39.232Z,41.88
2018-02-06T05:51:06.729Z,41.60
2018-02-06T05:53:34.214Z,42.08
2018-02-06T05:56:01.916Z,40.40
2018-02-06T05:58:29.412Z,40.28
2018-02-06T06:00:57.029Z,40.17
2018-02-06T06:03:24.639Z,38.97
2018-02-06T06:05:52.243Z,43.97
2018-02-06T06:08:21.958Z,38.97
2018-02-06T06:10:49.515Z,40.38
2018-02-06T06:13:17.091Z,40.70
2018-02-06T06:15:44.573Z,38.65
2018-02-06T06:18:12.069Z,41.88
2018-02-06T06:20:39.546Z,44.92
2018-02-06T06:23:07.108Z,43.25
2018-02-06T06:25:34.653Z,40.63
2018-02-06T06:28:02.233Z,46.65
2018-02-06T06:30:29.735Z,38.92
2018-02-06T06:32:57.220Z,46.08
2018-02-06T06:35:24.729Z,45.58
2018-02-06T06:37:52.238Z,45.90
2018-02-06T06:40:19.743Z,42.03
2018-02-06T06:42:47.254Z,39.50
2018-02-06T06:45:14.798Z,43.80
2018-02-06T06:47:42.352Z,39.80
2018-02-06T06:50:09.891Z,38.08
2018-02-06T06:52:37.418Z,43.65
2018-02-06T06:55:05.116Z,39.17
2018-02-06T06:57:32.660Z,44.13
2018-02-06T07:00:00.198Z,42.33
2018-02-06T07:02:27.796Z,38.75
2018-02-06T07:04:55.299Z,41.47
2018-02-06T07:07:22.816Z,46.45
2018-02-06T07:09:50.368Z,44.40
2018-02-06T07:12:17.922Z,36.85
2018-02-06T07:14:45.398Z,43.53
2018-02-06T07:17:12.916Z,42.42
2018-02-06T07:19:40.420Z,47.55
2018-02-06T07:22:07.930Z,42.97
2018-02-06T07:24:35.431Z,42.47
2018-02-06T07:27:02.957Z,39.45
2018-02-06T07:29:30.522Z,40.22
2018-02-06T07:31:58.079Z,44.15
2018-02-06T07:34:25.688Z,41.08
2018-02-06T07:36:53.209Z,39.13
2018-02-06T07:39:20.732Z,38.83
2018-02-06T07:41:48.257Z,41.53
2018-02-06T07:44:15.740Z,40.65
2018-02-06T07:46:43.220Z,43.63
2018-02-06T07:49:10.734Z,40.55
2018-02-06T07:51:38.264Z,41.67
2018-02-06T07:54:05.742Z,46.65
2018-02-06T07:56:33.248Z,45.00
2018-02-06T07:59:00.758Z,45.63
2018-02-06T08:01:28.278Z,42.47
2018-02-06T08:03:55.765Z,39.60
2018-02-06T08:06:23.279Z,46.95
2018-02-06T08:08:50.776Z,42.67
2018-02-06T08:11:18.314Z,39.47
2018-02-06T08:13:46.025Z,46.92
2018-02-06T08:16:13.599Z,42.60
2018-02-06T08:18:41.192Z,42.78
2018-02-06T08:21:08.691Z,46.15
2018-02-06T08:23:36.428Z,39.65
2018-02-06T08:26:03.943Z,34.58
2018-02-06T08:28:31.515Z,41.22
2018-02-06T08:30:59.015Z,43.58
2018-02-06T08:33:26.534Z,39.67
2018-02-06T08:35:55.392Z,39.30
2018-02-06T08:38:24.030Z,39.45
2018-02-06T08:40:51.654Z,46.78
2018-02-06T08:43:19.282Z,39.40
2018-02-06T08:45:46.793Z,42.15
2018-02-06T08:48:14.760Z,45.70
2018-02-06T08:50:42.279Z,44.80
2018-02-06T08:53:09.811Z,36.03
2018-02-06T08:55:37.288Z,47.92
2018-02-06T08:58:04.825Z,38.85
2018-02-06T09:00:32.319Z,46.53
2018-02-06T09:02:59.844Z,45.25
2018-02-06T09:05:27.340Z,42.45
2018-02-06T09:07:54.882Z,46.08
2018-02-06T09:10:22.375Z,50.83
2018-02-06T09:12:49.875Z,45.50
2018-02-06T09:15:17.397Z,49.25
2018-02-06T09:17:44.899Z,41.85
2018-02-06T09:20:12.421Z,44.63
2018-02-06T09:22:39.918Z,46.13
2018-02-06T09:25:07.426Z,42.90
2018-02-06T09:27:34.926Z,44.58
2018-02-06T09:30:02.470Z,43.30
2018-02-06T09:32:29.965Z,42.45
2018-02-06T09:34:57.499Z,47.15
2018-02-06T09:37:25.025Z,42.00
2018-02-06T09:39:52.564Z,44.88
2018-02-06T09:42:20.069Z,44.78
2018-02-06T09:44:47.626Z,41.37
2018-02-06T09:47:15.248Z,40.00
2018-02-06T09:49:42.757Z,45.08
2018-02-06T09:52:10.266Z,46.40
2018-02-06T09:54:38.259Z,41.37
2018-02-06T09:57:05.765Z,46.80
2018-02-06T09:59:33.304Z,44.05
2018-02-06T10:02:00.823Z,45.10
2018-02-06T10:04:28.364Z,48.15
2018-02-06T10:06:55.860Z,48.58
2018-02-06T10:09:23.610Z,44.20
2018-02-06T10:11:51.121Z,45.23
2018-02-06T10:14:18.644Z,42.58
2018-02-06T10:16:46.225Z,47.47
2018-02-06T10:19:13.730Z,44.13
2018-02-06T10:21:41.235Z,45.00
2018-02-06T10:24:09.268Z,47.80
2018-02-06T10:26:36.878Z,43.00
2018-02-06T10:29:04.511Z,46.47
2018-02-06T10:31:32.040Z,49.50
2018-02-06T10:33:59.565Z,47.13
2018-02-06T10:36:27.162Z,45.63
2018-02-06T10:38:54.779Z,43.63
2018-02-06T10:41:22.324Z,47.20
2018-02-06T10:43:49.945Z,45.00
2018-02-06T10:46:17.415Z,44.20
2018-02-06T10:48:44.933Z,43.00
2018-02-06T10:51:12.412Z,44.60
2018-02-06T10:53:39.894Z,43.93
2018-02-06T10:56:07.420Z,45.33
2018-02-06T10:58:34.914Z,45.30
2018-02-06T11:01:02.417Z,40.47
2018-02-06T11:03:29.919Z,48.43
2018-02-06T11:05:57.447Z,43.50
2018-02-06T11:08:24.993Z,42.73
2018-02-06T11:10:52.465Z,45.40
2018-02-06T11:13:19.986Z,43.57
2018-02-06T11:15:47.500Z,40.90
2018-02-06T11:18:15.025Z,45.60
2018-02-06T11:20:42.546Z,41.90
2018-02-06T11:23:10.039Z,47.17
2018-02-06T11:25:37.548Z,42.90
2018-02-06T11:28:05.073Z,42.90
2018-02-06T11:30:32.563Z,47.00
2018-02-06T11:33:00.065Z,45.67
2018-02-06T11:35:27.575Z,49.10
2018-02-06T11:37:55.069Z,44.70
2018-02-06T11:40:22.651Z,44.70
2018-02-06T11:42:50.146Z,43.67
2018-02-06T11:45:17.721Z,45.07
2018-02-06T11:47:45.311Z,49.73
2018-02-06T11:50:12.863Z,43.67
2018-02-06T11:52:40.469Z,43.20
2018-02-06T11:55:08.089Z,49.50
2018-02-06T11:57:35.611Z,45.43
2018-02-06T12:00:03.123Z,46.87
2018-02-06T12:02:30.646Z,44.23
2018-02-06T12:04:58.122Z,48.13
2018-02-06T12:07:25.642Z,43.47
2018-02-06T12:09:53.118Z,44.17
2018-02-06T12:12:20.651Z,44.90
2018-02-06T12:14:48.162Z,46.07
2018-02-06T12:17:15.664Z,47.47
2018-02-06T12:19:43.192Z,49.80
2018-02-06T12:22:10.671Z,40.57
2018-02-06T12:24:38.171Z,44.73
2018-02-06T12:27:05.655Z,43.73
2018-02-06T14:42:42.869Z,46.63
2018-02-06T14:45:10.354Z,47.80
2018-02-06T14:47:37.854Z,49.57
2018-02-06T14:50:05.357Z,46.80
2018-02-06T14:52:32.861Z,43.87
2018-02-06T14:55:00.526Z,40.30
2018-02-06T14:57:28.047Z,50.83
2018-02-06T14:59:55.649Z,51.17
2018-02-06T15:02:23.279Z,51.67
2018-02-06T15:04:50.855Z,52.20
2018-02-06T15:07:18.464Z,47.63
2018-02-06T15:09:45.990Z,47.13
2018-02-06T15:12:13.504Z,48.13
2018-02-06T15:14:40.991Z,46.33
2018-02-06T15:17:08.558Z,45.30
2018-02-06T15:19:36.030Z,45.70
2018-02-06T15:22:03.570Z,42.03
2018-02-06T15:24:31.059Z,46.10
2018-02-06T15:26:58.574Z,44.13
2018-02-06T15:29:26.069Z,43.47
2018-02-06T15:31:53.574Z,45.00
2018-02-06T15:34:21.106Z,47.07
2018-02-06T15:36:48.594Z,47.60
2018-02-06T15:39:16.142Z,46.63
2018-02-06T15:41:43.638Z,44.90
2018-02-06T15:44:11.182Z,43.20
2018-02-06T15:46:39.529Z,38.97
2018-02-06T15:49:07.010Z,41.23
2018-02-06T15:51:34.524Z,45.47
2018-02-06T15:54:02.098Z,47.67
2018-02-06T15:56:29.658Z,45.73
2018-02-06T15:58:57.199Z,48.30
2018-02-06T16:01:24.719Z,43.00
2018-02-06T16:03:52.239Z,45.10
2018-02-06T16:06:19.746Z,45.13
2018-02-06T16:08:47.332Z,46.43
2018-02-06T16:11:15.647Z,48.57
2018-02-06T16:13:44.034Z,44.07
2018-02-06T16:16:11.579Z,46.17
2018-02-06T16:18:39.232Z,44.90
2018-02-06T16:21:06.741Z,45.40
2018-02-06T16:23:34.231Z,43.30
2018-02-06T16:26:02.527Z,43.00
2018-02-06T16:28:30.060Z,45.20
2018-02-06T16:30:57.557Z,43.20
2018-02-06T16:33:25.071Z,45.60
2018-02-06T16:35:52.573Z,44.40
2018-02-06T16:38:20.216Z,42.40
2018-02-06T16:40:47.692Z,44.03
2018-02-06T16:43:15.224Z,48.00
2018-02-06T16:45:42.708Z,48.83
2018-02-06T16:48:10.217Z,51.10
2018-02-06T16:50:37.994Z,46.83
2018-02-06T16:53:05.540Z,43.22
2018-02-06T16:55:33.075Z,44.27
2018-02-06T16:58:01.259Z,45.65
2018-02-06T17:00:28.831Z,43.47
2018-02-06T17:02:56.380Z,45.92
2018-02-06T17:05:23.886Z,41.10
2018-02-06T17:07:51.480Z,39.20
2018-02-06T17:10:19.071Z,46.57
2018-02-06T17:12:46.612Z,46.35
2018-02-06T17:15:14.174Z,42.08
2018-02-06T17:17:41.736Z,41.28
2018-02-06T17:20:13.267Z,53.55
2018-02-06T17:22:40.829Z,47.15
2018-02-06T17:25:10.084Z,50.58
2018-02-06T17:27:39.545Z,52.97
2018-02-06T17:30:09.241Z,50.88
2018-02-06T17:32:38.672Z,49.20
2018-02-06T17:35:08.045Z,52.13
2018-02-06T17:37:37.362Z,55.33
2018-02-06T17:40:07.234Z,54.08
2018-02-06T17:42:36.482Z,55.25
2018-02-06T17:45:05.596Z,45.47
2018-02-06T17:47:35.220Z,61.97
2018-02-06T17:50:08.282Z,51.55
2018-02-06T17:52:38.052Z,63.08
2018-02-06T17:55:07.125Z,56.13
2018-02-06T17:57:36.065Z,60.12
2018-02-06T18:00:06.351Z,58.33
2018-02-06T18:02:36.342Z,61.05
2018-02-06T18:05:05.465Z,56.50
2018-02-06T18:07:35.645Z,66.93
2018-02-06T18:10:05.703Z,60.72
2018-02-06T18:12:34.920Z,64.55
2018-02-06T18:15:04.392Z,54.17
2018-02-06T18:17:33.865Z,56.58
2018-02-06T18:20:05.498Z,58.55
2018-02-06T18:22:34.741Z,55.65
2018-02-06T18:25:03.533Z,56.33
2018-02-06T18:27:31.088Z,62.03
2018-02-06T18:29:58.591Z,57.03
2018-02-06T18:32:26.131Z,54.35
2018-02-06T18:34:53.635Z,50.55
2018-02-06T18:37:21.185Z,54.38
2018-02-06T18:39:48.717Z,53.67
2018-02-06T18:42:16.269Z,52.20
2018-02-06T18:44:43.787Z,54.35
2018-02-06T18:47:11.282Z,55.38
2018-02-06T18:49:38.801Z,57.35
2018-02-06T18:52:06.314Z,54.15
2018-02-06T18:54:33.863Z,55.25
2018-02-06T18:57:01.434Z,54.72
2018-02-06T18:59:29.079Z,56.92
2018-02-06T19:01:56.590Z,53.35
2018-02-06T19:04:24.084Z,56.20
2018-02-06T19:06:52.004Z,55.88
2018-02-06T19:09:20.239Z,57.58
2018-02-06T19:11:49.342Z,55.47
2018-02-06T19:14:18.319Z,56.80
2018-02-06T19:16:46.879Z,63.87
2018-02-06T19:19:14.985Z,54.83
2018-02-06T19:21:43.608Z,53.53
2018-02-06T19:24:13.118Z,57.40
2018-02-06T19:26:41.176Z,55.22
2018-02-06T19:29:10.528Z,60.45
2018-02-06T19:31:40.316Z,65.65
2018-02-06T19:34:09.065Z,70.78
2018-02-06T19:36:37.899Z,66.65
2018-02-06T19:39:07.915Z,63.95
2018-02-06T19:41:36.897Z,61.10
2018-02-06T19:44:06.185Z,56.47
2018-02-06T19:46:35.377Z,57.53
2018-02-06T19:49:03.065Z,58.70
2018-02-06T19:51:31.002Z,57.35
2018-02-06T19:53:58.505Z,66.57
2018-02-06T19:56:26.012Z,68.32
2018-02-06T19:58:53.553Z,81.00
2018-02-06T20:01:21.897Z,88.53
2018-02-06T20:03:49.480Z,59.90
2018-02-06T20:06:17.123Z,58.95
2018-02-06T20:08:44.710Z,58.08
2018-02-06T20:11:12.309Z,68.47
2018-02-06T20:13:39.922Z,71.20
2018-02-06T20:16:07.510Z,67.35
2018-02-06T20:18:35.074Z,66.43
2018-02-06T20:21:02.610Z,75.93
2018-02-06T20:23:30.140Z,67.37
2018-02-06T20:25:57.677Z,74.78
2018-02-06T20:28:25.187Z,64.65
2018-02-06T20:30:52.819Z,56.85
2018-02-06T20:33:20.464Z,65.50
2018-02-06T20:35:48.009Z,65.60
2018-02-06T20:38:15.520Z,86.75
2018-02-06T20:40:43.060Z,96.15
2018-02-06T20:43:10.582Z,92.75
2018-02-06T20:45:38.079Z,74.65
2018-02-06T20:48:05.623Z,80.80
2018-02-06T20:50:33.274Z,63.78
2018-02-06T20:53:00.773Z,60.60
2018-02-06T20:55:28.309Z,73.05
2018-02-06T20:57:55.804Z,62.47
2018-02-06T21:00:23.333Z,65.62
2018-02-06T21:02:50.855Z,66.53
2018-02-06T21:05:18.590Z,66.15
2018-02-06T21:07:46.117Z,66.97
2018-02-06T21:10:13.645Z,68.65
2018-02-06T21:12:41.198Z,60.15
2018-02-06T21:15:08.697Z,61.70
2018-02-06T21:17:36.241Z,61.05
2018-02-06T21:20:03.738Z,53.53
2018-02-06T21:22:31.308Z,55.20
2018-02-06T21:24:58.849Z,55.70
2018-02-06T21:27:26.406Z,64.05
2018-02-06T21:29:53.903Z,61.80
2018-02-06T21:32:21.413Z,61.53
2018-02-06T21:34:48.921Z,57.60
2018-02-06T21:37:16.427Z,61.80
2018-02-06T21:39:43.956Z,66.07
2018-02-06T21:42:11.440Z,63.53
2018-02-06T21:44:39.474Z,58.08
2018-02-06T21:47:06.986Z,67.00
2018-02-06T21:49:34.480Z,60.80
2018-02-06T21:52:02.028Z,62.70
2018-02-06T21:54:29.522Z,73.30
2018-02-06T21:56:57.064Z,71.60
2018-02-06T21:59:24.566Z,66.82
2018-02-06T22:01:52.156Z,70.28
2018-02-06T22:04:19.647Z,64.25
2018-02-06T22:06:47.255Z,65.68
2018-02-06T22:09:14.756Z,66.93
2018-02-06T22:11:42.243Z,64.78
2018-02-06T22:14:09.757Z,60.35
2018-02-06T22:16:37.248Z,67.10
2018-02-06T22:19:04.830Z,66.72
2018-02-06T22:21:32.323Z,65.95
2018-02-06T22:23:59.867Z,63.45
2018-02-06T22:26:27.361Z,59.10
2018-02-06T22:28:54.873Z,63.47
2018-02-06T22:31:22.415Z,60.42
2018-02-06T22:33:49.900Z,54.88
2018-02-06T22:36:17.397Z,56.60
2018-02-06T22:38:45.100Z,64.28
2018-02-06T22:41:12.604Z,62.47
2018-02-06T22:43:40.139Z,57.67
2018-02-06T22:46:07.640Z,58.33
2018-02-06T22:48:35.246Z,59.30
2018-02-06T22:51:02.745Z,62.40
2018-02-06T22:53:30.394Z,59.00
2018-02-06T22:55:57.919Z,61.97
2018-02-06T22:58:25.556Z,66.55
2018-02-06T23:00:53.125Z,68.00
2018-02-06T23:03:20.676Z,58.10
2018-02-06T23:05:48.351Z,59.90
2018-02-06T23:08:15.853Z,60.25
2018-02-06T23:10:43.393Z,56.33
2018-02-06T23:13:10.878Z,58.97
2018-02-06T23:15:39.107Z,58.45
2018-02-06T23:18:06.612Z,59.88
2018-02-06T23:20:34.098Z,59.70
2018-02-06T23:23:01.648Z,59.42
2018-02-06T23:25:29.150Z,58.60
2018-02-06T23:27:56.654Z,63.15
2018-02-06T23:30:24.181Z,62.17
2018-02-06T23:32:51.759Z,59.33
2018-02-06T23:35:19.443Z,61.20
2018-02-06T23:37:47.788Z,63.30
2018-02-06T23:40:15.354Z,62.20
2018-02-06T23:42:42.855Z,60.10
2018-02-06T23:45:10.386Z,58.65
2018-02-06T23:47:38.402Z,58.85
2018-02-06T23:50:06.000Z,60.65
2018-02-06T23:52:33.512Z,56.28
2018-02-06T23:55:01.081Z,62.30
2018-02-06T23:57:28.662Z,60.88
2018-02-06T23:59:56.354Z,62.22
